Fortune Wing — VRHW2 — position and weather

sailwx.info

Track history (hours):
 
Tides and Currents Weather Stations Pressure Air Temp Water Temp Dewpoint Dewpoint Depression Visibility Wind Speed Wind Dir Waves Ship Positions

Fortune Wing

Last reported at 2016-Apr-25 00:22 UTC. Time now 2016-May-02 03:43 UTC.
Position S 26°21' W 042°55'.

Length 190 m; draft 11.7 m.

Type: Cargo ship. MMSI: 477389500.

Date/timePositionNaut miles runAvg speedWind from/ knotsBaromVisibWave heightAir tempDewpointWater temp
2016-Apr-25 00:22S 26°21' W 042°55'1212.2
2016-Apr-24 23:23S 26°19' W 043°08'1011.8
2016-Apr-24 22:30S 26°17' W 043°19'1111.5
2016-Apr-24 21:33S 26°15' W 043°31'1111.4
2016-Apr-24 20:33S 26°13' W 043°44'1111.4
2016-Apr-24 19:33S 26°11' W 043°56'1211.6
2016-Apr-24 18:33S 26°08' W 044°09'1211.7
2016-Apr-24 17:33S 26°07' W 044°22'1211.6
2016-Apr-24 16:32S 26°04' W 044°35'2411.8
2016-Apr-24 14:28S 25°59' W 045°01'1212.9
2016-Apr-24 13:33S 25°50' W 045°10'1313.1
2016-Apr-24 12:33S 25°41' W 045°20'1212.7
2016-Apr-24 11:33S 25°31' W 045°29'1312.6
2016-Apr-24 10:33S 25°22' W 045°38'1312.5
2016-Apr-24 09:33S 25°13' W 045°48'1212.6
2016-Apr-24 08:33S 25°03' W 045°57'1312.9
2016-Apr-24 07:33S 24°52' W 046°04'1313.1
2016-Apr-24 06:33S 24°40' W 046°09'1312.6
2016-Apr-24 05:32S 24°28' W 046°15'1212.3
2016-Apr-24 04:33S 24°19' W 046°24'1110.8
2016-Apr-24 03:33S 24°08' W 046°24'10 9.8
2016-Apr-24 02:33S 23°60' W 046°19'3 2.6
2016-Apr-24 01:30S 23°57' W 046°19'0 0.0
2016-Apr-24 00:33S 23°57' W 046°19'0 0.0
2016-Apr-23 23:30S 23°57' W 046°19'0 0.0
2016-Apr-23 22:30S 23°57' W 046°19'0 0.0
2016-Apr-23 21:33S 23°57' W 046°19'0 0.0
2016-Apr-23 20:33S 23°57' W 046°19'0 0.0
2016-Apr-23 19:30S 23°57' W 046°19'0 0.0
2016-Apr-23 18:33S 23°57' W 046°19'0 0.0
2016-Apr-23 17:30S 23°57' W 046°19'0 0.0
2016-Apr-23 16:27S 23°57' W 046°19'0 0.0
2016-Apr-23 15:33S 23°57' W 046°19'0 0.0
2016-Apr-23 14:24S 23°57' W 046°19'0 0.0
2016-Apr-23 13:33S 23°57' W 046°19'0 0.0
2016-Apr-23 12:33S 23°57' W 046°19'0 0.0
2016-Apr-23 11:15S 23°57' W 046°19'0 0.0
2016-Apr-23 10:24S 23°57' W 046°19'0 0.0
2016-Apr-23 09:30S 23°57' W 046°19'0 0.0
2016-Apr-23 08:30S 23°57' W 046°19'0 0.0
2016-Apr-23 07:30S 23°57' W 046°19'0 0.0
2016-Apr-23 06:33S 23°57' W 046°19'0 0.0
2016-Apr-23 05:33S 23°57' W 046°19'0 0.0
2016-Apr-23 04:30S 23°57' W 046°19'0 0.0
2016-Apr-23 03:30S 23°57' W 046°19'0 0.0
2016-Apr-23 02:30S 23°57' W 046°19'0 0.0
2016-Apr-23 01:33S 23°57' W 046°19'0 0.0
2016-Apr-23 00:33S 23°57' W 046°19'0 0.0
2016-Apr-22 23:33S 23°57' W 046°19'4 4.0
2016-Apr-22 22:33S 24°00' W 046°21'6 5.8
2016-Apr-22 21:33S 24°06' W 046°21'2 2.0
2016-Apr-22 20:32S 24°06' W 046°19'0 0.0
2016-Apr-22 19:29S 24°06' W 046°19'0 0.0
2016-Apr-22 18:32S 24°06' W 046°19'0 0.0
2016-Apr-22 17:32S 24°06' W 046°19'0 0.0
2016-Apr-22 14:32S 24°06' W 046°19'0 0.0
2016-Apr-22 13:32S 24°06' W 046°19'0 0.2
2016-Apr-22 12:32S 24°06' W 046°19'0 0.0
2016-Apr-22 11:32S 24°06' W 046°19'0 0.0
2016-Apr-22 10:26S 24°06' W 046°19'0 0.0
2016-Apr-22 09:17S 24°06' W 046°19'0 0.0
2016-Apr-22 08:32S 24°06' W 046°19'0 0.0
2016-Apr-22 07:32S 24°06' W 046°19'0 0.0
2016-Apr-22 06:32S 24°06' W 046°19'0 0.0
2016-Apr-22 05:29S 24°06' W 046°19'0 0.0
2016-Apr-22 04:32S 24°06' W 046°19'0 0.0
2016-Apr-22 03:32S 24°06' W 046°19'0 0.0
2016-Apr-22 02:23S 24°06' W 046°19'0 0.0
2016-Apr-22 01:32S 24°06' W 046°19'0 0.0
2016-Apr-22 00:23S 24°06' W 046°19'0 0.0
2016-Apr-21 23:29S 24°06' W 046°19'0 0.0
2016-Apr-21 22:32S 24°06' W 046°19'0 0.0
2016-Apr-21 21:32S 24°06' W 046°19'0 0.0
2016-Apr-21 20:32S 24°06' W 046°19'0 0.0
2016-Apr-21 19:32S 24°06' W 046°19'0 0.1
2016-Apr-21 18:32S 24°06' W 046°19'0 0.0
2016-Apr-21 17:32S 24°06' W 046°19'0 0.0
2016-Apr-21 16:29S 24°06' W 046°19'0 0.0
2016-Apr-21 15:32S 24°06' W 046°19'0 0.0
2016-Apr-21 14:26S 24°06' W 046°19'0 0.0
2016-Apr-21 13:32S 24°06' W 046°19'0 0.0
2016-Apr-21 12:20S 24°06' W 046°19'0 0.0
2016-Apr-21 11:29S 24°06' W 046°19'0 0.0
2016-Apr-21 10:32S 24°06' W 046°19'0 0.1
2016-Apr-21 09:32S 24°06' W 046°19'0 0.0
2016-Apr-21 08:32S 24°06' W 046°19'0 0.1
2016-Apr-21 07:20S 24°06' W 046°19'0 0.0
2016-Apr-21 06:26S 24°06' W 046°19'0 0.0
2016-Apr-21 05:29S 24°06' W 046°19'0 0.0
2016-Apr-21 04:29S 24°06' W 046°19'0 0.0
2016-Apr-21 03:32S 24°06' W 046°19'0 0.0
2016-Apr-21 02:32S 24°06' W 046°19'0 0.0
2016-Apr-21 01:26S 24°06' W 046°19'0 0.0
2016-Apr-21 00:32S 24°06' W 046°19'0 0.0
2016-Apr-20 23:32S 24°06' W 046°19'0 0.0
2016-Apr-20 22:32S 24°06' W 046°19'0 0.0
2016-Apr-20 21:32S 24°06' W 046°19'0 0.0
2016-Apr-20 20:29S 24°06' W 046°19'0 0.0
2016-Apr-20 19:29S 24°06' W 046°19'0 0.0
2016-Apr-20 18:29S 24°06' W 046°19'0 0.0
2016-Apr-20 17:32S 24°06' W 046°19'0 0.0
2016-Apr-20 16:32S 24°06' W 046°19'0 0.0
2016-Apr-20 15:32S 24°06' W 046°19'0 0.0
2016-Apr-20 14:29S 24°06' W 046°19'0 0.0
2016-Apr-20 13:32S 24°06' W 046°19'0 0.0
2016-Apr-20 12:29S 24°06' W 046°19'0 0.0
2016-Apr-20 11:32S 24°06' W 046°19'0 0.2
2016-Apr-20 10:32S 24°06' W 046°19'0 0.0
2016-Apr-20 09:32S 24°06' W 046°19'0 0.0
2016-Apr-20 08:29S 24°06' W 046°19'0 0.0
2016-Apr-20 07:26S 24°06' W 046°19'0 0.0
2016-Apr-20 06:32S 24°06' W 046°19'0 0.1
2016-Apr-20 05:26S 24°06' W 046°19'0 0.0
2016-Apr-20 04:23S 24°06' W 046°19'0 0.0
2016-Apr-20 03:29S 24°06' W 046°19'0 0.0
2016-Apr-20 02:32S 24°06' W 046°19'0 0.0
2016-Apr-20 01:23S 24°06' W 046°19'0 0.0
2016-Apr-20 00:32S 24°06' W 046°19'0 0.0
2016-Apr-19 23:32S 24°06' W 046°19'0 0.1
2016-Apr-19 22:32S 24°06' W 046°19'0 0.1
2016-Apr-19 21:26S 24°06' W 046°19'0 0.1
2016-Apr-19 20:32S 24°06' W 046°19'0 0.1
2016-Apr-19 19:32S 24°06' W 046°19'0 0.1
2016-Apr-19 18:26S 24°06' W 046°19'0 0.1
2016-Apr-19 17:32S 24°06' W 046°19'0 0.0
2016-Apr-19 16:20S 24°06' W 046°19'0 0.1
2016-Apr-19 15:29S 24°06' W 046°19'0 0.1
2016-Apr-19 14:32S 24°06' W 046°19'0 0.0
2016-Apr-19 13:32S 24°06' W 046°19'0 0.1
2016-Apr-19 12:26S 24°06' W 046°19'0 0.0
2016-Apr-19 11:32S 24°06' W 046°19'0 0.0
2016-Apr-19 10:29S 24°06' W 046°19'0 0.0
2016-Apr-19 09:29S 24°06' W 046°19'0 0.0
2016-Apr-19 08:23S 24°06' W 046°19'0 0.0
2016-Apr-19 07:32S 24°06' W 046°19'0 0.0
2016-Apr-19 06:32S 24°06' W 046°19'0 0.1
2016-Apr-19 05:26S 24°06' W 046°19'0 0.0
2016-Apr-19 04:29S 24°06' W 046°19'0 0.0
2016-Apr-19 03:32S 24°06' W 046°19'0 0.0
2016-Apr-19 02:29S 24°06' W 046°19'0 0.0
2016-Apr-19 01:32S 24°06' W 046°19'0 0.0
2016-Apr-19 00:32S 24°06' W 046°19'0 0.0
2016-Apr-18 23:29S 24°06' W 046°19'0 0.0
2016-Apr-18 22:32S 24°06' W 046°19'0 0.0
2016-Apr-18 21:32S 24°06' W 046°19'0 0.1
2016-Apr-18 20:29S 24°06' W 046°19'0 0.0
2016-Apr-18 19:32S 24°06' W 046°19'0 0.0
2016-Apr-18 18:32S 24°06' W 046°19'0 0.1
2016-Apr-18 17:32S 24°06' W 046°19'0 0.0
2016-Apr-18 16:23S 24°06' W 046°19'0 0.1
2016-Apr-18 15:29S 24°06' W 046°19'0 0.1
2016-Apr-18 14:29S 24°06' W 046°19'0 0.0
2016-Apr-18 13:32S 24°06' W 046°19'0 0.0
2016-Apr-18 12:32S 24°06' W 046°19'0 0.0
2016-Apr-18 11:29S 24°06' W 046°19'0 0.0
2016-Apr-18 10:32S 24°06' W 046°19'0 0.1
2016-Apr-18 09:29S 24°06' W 046°19'0 0.1
2016-Apr-18 08:29S 24°06' W 046°19'0 0.0
2016-Apr-18 07:23S 24°06' W 046°19'0 0.1
2016-Apr-18 06:26S 24°06' W 046°19'0 0.1
2016-Apr-18 05:32S 24°06' W 046°19'0 0.0
2016-Apr-18 04:32S 24°06' W 046°19'0 0.0
2016-Apr-18 03:29S 24°06' W 046°19'0 0.0
2016-Apr-18 02:20S 24°06' W 046°19'0 0.0
2016-Apr-18 01:26S 24°06' W 046°19'0 0.0
2016-Apr-18 00:32S 24°06' W 046°19'0 0.1
2016-Apr-17 23:29S 24°06' W 046°19'0 0.1
2016-Apr-17 22:32S 24°06' W 046°19'1 1.5
2016-Apr-17 21:33S 24°07' W 046°20'6 5.6
2016-Apr-17 20:33S 24°13' W 046°20'9 9.5
2016-Apr-17 19:33S 24°22' W 046°17'1413.7
2016-Apr-17 18:33S 24°34' W 046°11'1313.4
2016-Apr-17 17:34S 24°47' W 046°06'1313.1
2016-Apr-17 16:33S 24°59' W 046°00'1313.3
2016-Apr-17 15:33S 25°09' W 045°51'1313.2
2016-Apr-17 14:33S 25°19' W 045°41'1313.2
2016-Apr-17 13:33S 25°29' W 045°31'  
Track history (hours):
 
Tides and Currents Weather Stations Pressure Air Temp Water Temp Dewpoint Dewpoint Depression Visibility Wind Speed Wind Dir Waves Ship Positions

Fortune Wing

Last reported at 2016-Apr-25 00:22 UTC. Time now 2016-May-02 03:43 UTC.
Position S 26°21' W 042°55'.

Length 190 m; draft 11.7 m.

Type: Cargo ship. MMSI: 477389500.

Date/timePositionNaut miles runAvg speedWind from/ knotsBaromVisibWave heightAir tempDewpointWater temp
2016-Apr-25 00:22S 26°21' W 042°55'1212.2
2016-Apr-24 23:23S 26°19' W 043°08'1011.8
2016-Apr-24 22:30S 26°17' W 043°19'1111.5
2016-Apr-24 21:33S 26°15' W 043°31'1111.4
2016-Apr-24 20:33S 26°13' W 043°44'1111.4
2016-Apr-24 19:33S 26°11' W 043°56'1211.6
2016-Apr-24 18:33S 26°08' W 044°09'1211.7
2016-Apr-24 17:33S 26°07' W 044°22'1211.6
2016-Apr-24 16:32S 26°04' W 044°35'2411.8
2016-Apr-24 14:28S 25°59' W 045°01'1212.9
2016-Apr-24 13:33S 25°50' W 045°10'1313.1
2016-Apr-24 12:33S 25°41' W 045°20'1212.7
2016-Apr-24 11:33S 25°31' W 045°29'1312.6
2016-Apr-24 10:33S 25°22' W 045°38'1312.5
2016-Apr-24 09:33S 25°13' W 045°48'1212.6
2016-Apr-24 08:33S 25°03' W 045°57'1312.9
2016-Apr-24 07:33S 24°52' W 046°04'1313.1
2016-Apr-24 06:33S 24°40' W 046°09'1312.6
2016-Apr-24 05:32S 24°28' W 046°15'1212.3
2016-Apr-24 04:33S 24°19' W 046°24'1110.8
2016-Apr-24 03:33S 24°08' W 046°24'10 9.8
2016-Apr-24 02:33S 23°60' W 046°19'3 2.6
2016-Apr-24 01:30S 23°57' W 046°19'0 0.0
2016-Apr-24 00:33S 23°57' W 046°19'0 0.0
2016-Apr-23 23:30S 23°57' W 046°19'0 0.0
2016-Apr-23 22:30S 23°57' W 046°19'0 0.0
2016-Apr-23 21:33S 23°57' W 046°19'0 0.0
2016-Apr-23 20:33S 23°57' W 046°19'0 0.0
2016-Apr-23 19:30S 23°57' W 046°19'0 0.0
2016-Apr-23 18:33S 23°57' W 046°19'0 0.0
2016-Apr-23 17:30S 23°57' W 046°19'0 0.0
2016-Apr-23 16:27S 23°57' W 046°19'0 0.0
2016-Apr-23 15:33S 23°57' W 046°19'0 0.0
2016-Apr-23 14:24S 23°57' W 046°19'0 0.0
2016-Apr-23 13:33S 23°57' W 046°19'0 0.0
2016-Apr-23 12:33S 23°57' W 046°19'0 0.0
2016-Apr-23 11:15S 23°57' W 046°19'0 0.0
2016-Apr-23 10:24S 23°57' W 046°19'0 0.0
2016-Apr-23 09:30S 23°57' W 046°19'0 0.0
2016-Apr-23 08:30S 23°57' W 046°19'0 0.0
2016-Apr-23 07:30S 23°57' W 046°19'0 0.0
2016-Apr-23 06:33S 23°57' W 046°19'0 0.0
2016-Apr-23 05:33S 23°57' W 046°19'0 0.0
2016-Apr-23 04:30S 23°57' W 046°19'0 0.0
2016-Apr-23 03:30S 23°57' W 046°19'0 0.0
2016-Apr-23 02:30S 23°57' W 046°19'0 0.0
2016-Apr-23 01:33S 23°57' W 046°19'0 0.0
2016-Apr-23 00:33S 23°57' W 046°19'0 0.0
2016-Apr-22 23:33S 23°57' W 046°19'4 4.0
2016-Apr-22 22:33S 24°00' W 046°21'6 5.8
2016-Apr-22 21:33S 24°06' W 046°21'2 2.0
2016-Apr-22 20:32S 24°06' W 046°19'0 0.0
2016-Apr-22 19:29S 24°06' W 046°19'0 0.0
2016-Apr-22 18:32S 24°06' W 046°19'0 0.0
2016-Apr-22 17:32S 24°06' W 046°19'0 0.0
2016-Apr-22 14:32S 24°06' W 046°19'0 0.0
2016-Apr-22 13:32S 24°06' W 046°19'0 0.2
2016-Apr-22 12:32S 24°06' W 046°19'0 0.0
2016-Apr-22 11:32S 24°06' W 046°19'0 0.0
2016-Apr-22 10:26S 24°06' W 046°19'0 0.0
2016-Apr-22 09:17S 24°06' W 046°19'0 0.0
2016-Apr-22 08:32S 24°06' W 046°19'0 0.0
2016-Apr-22 07:32S 24°06' W 046°19'0 0.0
2016-Apr-22 06:32S 24°06' W 046°19'0 0.0
2016-Apr-22 05:29S 24°06' W 046°19'0 0.0
2016-Apr-22 04:32S 24°06' W 046°19'0 0.0
2016-Apr-22 03:32S 24°06' W 046°19'0 0.0
2016-Apr-22 02:23S 24°06' W 046°19'0 0.0
2016-Apr-22 01:32S 24°06' W 046°19'0 0.0
2016-Apr-22 00:23S 24°06' W 046°19'0 0.0
2016-Apr-21 23:29S 24°06' W 046°19'0 0.0
2016-Apr-21 22:32S 24°06' W 046°19'0 0.0
2016-Apr-21 21:32S 24°06' W 046°19'0 0.0
2016-Apr-21 20:32S 24°06' W 046°19'0 0.0
2016-Apr-21 19:32S 24°06' W 046°19'0 0.1
2016-Apr-21 18:32S 24°06' W 046°19'0 0.0
2016-Apr-21 17:32S 24°06' W 046°19'0 0.0
2016-Apr-21 16:29S 24°06' W 046°19'0 0.0
2016-Apr-21 15:32S 24°06' W 046°19'0 0.0
2016-Apr-21 14:26S 24°06' W 046°19'0 0.0
2016-Apr-21 13:32S 24°06' W 046°19'0 0.0
2016-Apr-21 12:20S 24°06' W 046°19'0 0.0
2016-Apr-21 11:29S 24°06' W 046°19'0 0.0
2016-Apr-21 10:32S 24°06' W 046°19'0 0.1
2016-Apr-21 09:32S 24°06' W 046°19'0 0.0
2016-Apr-21 08:32S 24°06' W 046°19'0 0.1
2016-Apr-21 07:20S 24°06' W 046°19'0 0.0
2016-Apr-21 06:26S 24°06' W 046°19'0 0.0
2016-Apr-21 05:29S 24°06' W 046°19'0 0.0
2016-Apr-21 04:29S 24°06' W 046°19'0 0.0
2016-Apr-21 03:32S 24°06' W 046°19'0 0.0
2016-Apr-21 02:32S 24°06' W 046°19'0 0.0
2016-Apr-21 01:26S 24°06' W 046°19'0 0.0
2016-Apr-21 00:32S 24°06' W 046°19'0 0.0
2016-Apr-20 23:32S 24°06' W 046°19'0 0.0
2016-Apr-20 22:32S 24°06' W 046°19'0 0.0
2016-Apr-20 21:32S 24°06' W 046°19'0 0.0
2016-Apr-20 20:29S 24°06' W 046°19'0 0.0
2016-Apr-20 19:29S 24°06' W 046°19'0 0.0
2016-Apr-20 18:29S 24°06' W 046°19'0 0.0
2016-Apr-20 17:32S 24°06' W 046°19'0 0.0
2016-Apr-20 16:32S 24°06' W 046°19'0 0.0
2016-Apr-20 15:32S 24°06' W 046°19'0 0.0
2016-Apr-20 14:29S 24°06' W 046°19'0 0.0
2016-Apr-20 13:32S 24°06' W 046°19'0 0.0
2016-Apr-20 12:29S 24°06' W 046°19'0 0.0
2016-Apr-20 11:32S 24°06' W 046°19'0 0.2
2016-Apr-20 10:32S 24°06' W 046°19'0 0.0
2016-Apr-20 09:32S 24°06' W 046°19'0 0.0
2016-Apr-20 08:29S 24°06' W 046°19'0 0.0
2016-Apr-20 07:26S 24°06' W 046°19'0 0.0
2016-Apr-20 06:32S 24°06' W 046°19'0 0.1
2016-Apr-20 05:26S 24°06' W 046°19'0 0.0
2016-Apr-20 04:23S 24°06' W 046°19'0 0.0
2016-Apr-20 03:29S 24°06' W 046°19'0 0.0
2016-Apr-20 02:32S 24°06' W 046°19'0 0.0
2016-Apr-20 01:23S 24°06' W 046°19'0 0.0
2016-Apr-20 00:32S 24°06' W 046°19'0 0.0
2016-Apr-19 23:32S 24°06' W 046°19'0 0.1
2016-Apr-19 22:32S 24°06' W 046°19'0 0.1
2016-Apr-19 21:26S 24°06' W 046°19'0 0.1
2016-Apr-19 20:32S 24°06' W 046°19'0 0.1
2016-Apr-19 19:32S 24°06' W 046°19'0 0.1
2016-Apr-19 18:26S 24°06' W 046°19'0 0.1
2016-Apr-19 17:32S 24°06' W 046°19'0 0.0
2016-Apr-19 16:20S 24°06' W 046°19'0 0.1
2016-Apr-19 15:29S 24°06' W 046°19'0 0.1
2016-Apr-19 14:32S 24°06' W 046°19'0 0.0
2016-Apr-19 13:32S 24°06' W 046°19'0 0.1
2016-Apr-19 12:26S 24°06' W 046°19'0 0.0
2016-Apr-19 11:32S 24°06' W 046°19'0 0.0
2016-Apr-19 10:29S 24°06' W 046°19'0 0.0
2016-Apr-19 09:29S 24°06' W 046°19'0 0.0
2016-Apr-19 08:23S 24°06' W 046°19'0 0.0
2016-Apr-19 07:32S 24°06' W 046°19'0 0.0
2016-Apr-19 06:32S 24°06' W 046°19'0 0.1
2016-Apr-19 05:26S 24°06' W 046°19'0 0.0
2016-Apr-19 04:29S 24°06' W 046°19'0 0.0
2016-Apr-19 03:32S 24°06' W 046°19'0 0.0
2016-Apr-19 02:29S 24°06' W 046°19'0 0.0
2016-Apr-19 01:32S 24°06' W 046°19'0 0.0
2016-Apr-19 00:32S 24°06' W 046°19'0 0.0
2016-Apr-18 23:29S 24°06' W 046°19'0 0.0
2016-Apr-18 22:32S 24°06' W 046°19'0 0.0
2016-Apr-18 21:32S 24°06' W 046°19'0 0.1
2016-Apr-18 20:29S 24°06' W 046°19'0 0.0
2016-Apr-18 19:32S 24°06' W 046°19'0 0.0
2016-Apr-18 18:32S 24°06' W 046°19'0 0.1
2016-Apr-18 17:32S 24°06' W 046°19'0 0.0
2016-Apr-18 16:23S 24°06' W 046°19'0 0.1
2016-Apr-18 15:29S 24°06' W 046°19'0 0.1
2016-Apr-18 14:29S 24°06' W 046°19'0 0.0
2016-Apr-18 13:32S 24°06' W 046°19'0 0.0
2016-Apr-18 12:32S 24°06' W 046°19'0 0.0
2016-Apr-18 11:29S 24°06' W 046°19'0 0.0
2016-Apr-18 10:32S 24°06' W 046°19'0 0.1
2016-Apr-18 09:29S 24°06' W 046°19'0 0.1
2016-Apr-18 08:29S 24°06' W 046°19'0 0.0
2016-Apr-18 07:23S 24°06' W 046°19'0 0.1
2016-Apr-18 06:26S 24°06' W 046°19'0 0.1
2016-Apr-18 05:32S 24°06' W 046°19'0 0.0
2016-Apr-18 04:32S 24°06' W 046°19'0 0.0
2016-Apr-18 03:29S 24°06' W 046°19'0 0.0
2016-Apr-18 02:20S 24°06' W 046°19'0 0.0
2016-Apr-18 01:26S 24°06' W 046°19'0 0.0
2016-Apr-18 00:32S 24°06' W 046°19'0 0.1
2016-Apr-17 23:29S 24°06' W 046°19'0 0.1
2016-Apr-17 22:32S 24°06' W 046°19'1 1.5
2016-Apr-17 21:33S 24°07' W 046°20'6 5.6
2016-Apr-17 20:33S 24°13' W 046°20'9 9.5
2016-Apr-17 19:33S 24°22' W 046°17'1413.7
2016-Apr-17 18:33S 24°34' W 046°11'1313.4
2016-Apr-17 17:34S 24°47' W 046°06'1313.1
2016-Apr-17 16:33S 24°59' W 046°00'1313.3
2016-Apr-17 15:33S 25°09' W 045°51'1313.2
2016-Apr-17 14:33S 25°19' W 045°41'1313.2
2016-Apr-17 13:33S 25°29' W 045°31'  

Dump ship's entire track history